Time;durP1;ratioP1;P1;durP2;ratioP2;P2;SDS_P1;SDS_P2;PMS_P1;PMS_P2;Temp;Humidity;BMP_temperature;BMP_pressure;BME280_temperature;BME280_humidity;BME280_pressure;Samples;Min_cycle;Max_cycle;Signal;HPM_P1;HPM_P2
2023/07/28 00:01:47;;;;;;;0.20;0.20;;;;;;;;;;5000440;28;20195;-95
2023/07/28 00:04:14;;;;;;;0.38;0.38;;;;;;;;;;5000658;28;20185;-95
2023/07/28 00:06:42;;;;;;;0.50;0.50;;;;;;;;;;5000683;28;20172;-95
2023/07/28 00:09:10;;;;;;;0.30;0.30;;;;;;;;;;5000748;28;20177;-95
2023/07/28 00:11:38;;;;;;;0.50;0.50;;;;;;;;;;5000345;28;20177;-96
2023/07/28 00:14:06;;;;;;;0.30;0.30;;;;;;;;;;5000580;28;20191;-95
2023/07/28 00:16:34;;;;;;;0.30;0.30;;;;;;;;;;5000750;28;20200;-95
2023/07/28 00:19:03;;;;;;;0.80;0.40;;;;;;;;;;5000915;28;20179;-95
2023/07/28 00:21:31;;;;;;;0.50;0.50;;;;;;;;;;5000844;28;20196;-95
2023/07/28 00:23:59;;;;;;;0.43;0.43;;;;;;;;;;5001430;28;20168;-95
2023/07/28 00:26:27;;;;;;;0.20;0.20;;;;;;;;;;5001417;28;20172;-95
2023/07/28 00:28:54;;;;;;;0.40;0.40;;;;;;;;;;5000972;28;20384;-95
2023/07/28 00:31:22;;;;;;;0.20;0.20;;;;;;;;;;5000259;28;20176;-96
2023/07/28 00:33:50;;;;;;;0.50;0.50;;;;;;;;;;5000267;28;20187;-95
2023/07/28 00:36:19;;;;;;;0.22;0.22;;;;;;;;;;5000380;28;20181;-94
2023/07/28 00:38:48;;;;;;;0.40;0.40;;;;;;;;;;5000390;28;20177;-95
2023/07/28 00:41:15;;;;;;;0.50;0.50;;;;;;;;;;4999884;28;20180;-94
2023/07/28 00:43:43;;;;;;;0.30;0.30;;;;;;;;;;5000122;28;20173;-95
2023/07/28 00:46:12;;;;;;;0.40;0.40;;;;;;;;;;5000066;28;20173;-95
2023/07/28 00:48:40;;;;;;;0.22;0.22;;;;;;;;;;5000022;28;20184;-95
2023/07/28 00:51:09;;;;;;;0.22;0.22;;;;;;;;;;4999755;28;20180;-96
2023/07/28 00:53:38;;;;;;;0.32;0.32;;;;;;;;;;4999923;28;20191;-95
2023/07/28 00:56:07;;;;;;;0.10;0.10;;;;;;;;;;5000029;28;20180;-96
2023/07/28 00:58:35;;;;;;;0.22;0.22;;;;;;;;;;4999360;28;20184;-95
2023/07/28 01:01:03;;;;;;;0.30;0.30;;;;;;;;;;4999483;28;20188;-96
2023/07/28 01:03:31;;;;;;;0.35;0.35;;;;;;;;;;4999890;28;20172;-95
2023/07/28 01:06:12;;;;;;;0.50;0.50;;;;;;;;;;5000025;28;20196;-95
2023/07/28 01:08:47;;;;;;;0.20;0.20;;;;;;;;;;4999973;28;20175;-95
2023/07/28 01:11:15;;;;;;;1.58;0.52;;;;;;;;;;4999651;28;20186;-96
2023/07/28 01:13:43;;;;;;;0.20;0.20;;;;;;;;;;4999724;28;20180;-96
2023/07/28 01:16:11;;;;;;;0.30;0.30;;;;;;;;;;5002973;28;20172;-95
2023/07/28 01:18:38;;;;;;;0.40;0.40;;;;;;;;;;5003749;28;20168;-95
2023/07/28 01:21:10;;;;;;;0.50;0.50;;;;;;;;;;5003630;28;20180;-95
2023/07/28 01:23:45;;;;;;;0.50;0.50;;;;;;;;;;5003706;28;20173;-95
2023/07/28 01:26:14;;;;;;;0.52;0.50;;;;;;;;;;5003759;28;20179;-95
2023/07/28 01:28:43;;;;;;;0.47;0.47;;;;;;;;;;5003074;28;20185;-96
2023/07/28 01:31:11;;;;;;;0.32;0.32;;;;;;;;;;5002996;28;20196;-95
2023/07/28 01:33:39;;;;;;;0.50;0.50;;;;;;;;;;5003466;28;20180;-94
2023/07/28 01:36:06;;;;;;;0.50;0.50;;;;;;;;;;5003421;28;20195;-95
2023/07/28 01:38:34;;;;;;;0.40;0.40;;;;;;;;;;5003380;28;20172;-95
2023/07/28 01:41:02;;;;;;;0.50;0.43;;;;;;;;;;5003142;28;20177;-95
2023/07/28 01:43:30;;;;;;;0.20;0.20;;;;;;;;;;5003403;28;20177;-95
2023/07/28 01:45:59;;;;;;;0.30;0.30;;;;;;;;;;5003252;28;20193;-95
2023/07/28 01:48:27;;;;;;;0.40;0.40;;;;;;;;;;5003386;28;20192;-96
2023/07/28 01:50:55;;;;;;;0.50;0.50;;;;;;;;;;5003125;28;20168;-95
2023/07/28 01:53:23;;;;;;;0.40;0.40;;;;;;;;;;5003370;28;20180;-96
2023/07/28 01:55:51;;;;;;;0.32;0.32;;;;;;;;;;5003054;28;20216;-95
2023/07/28 01:58:19;;;;;;;0.40;0.40;;;;;;;;;;5000734;28;20180;-95
2023/07/28 02:00:47;;;;;;;0.50;0.50;;;;;;;;;;5002827;28;20196;-95
2023/07/28 02:03:16;;;;;;;0.25;0.22;;;;;;;;;;5003063;28;20213;-95
2023/07/28 02:05:44;;;;;;;0.40;0.40;;;;;;;;;;5003050;28;20309;-96
2023/07/28 02:08:12;;;;;;;0.20;0.20;;;;;;;;;;5002990;28;20196;-96
2023/07/28 02:10:40;;;;;;;0.30;0.30;;;;;;;;;;5002560;28;20176;-96
2023/07/28 02:13:07;;;;;;;0.30;0.30;;;;;;;;;;5002879;28;20176;-95
2023/07/28 02:15:35;;;;;;;0.40;0.40;;;;;;;;;;5002824;28;20188;-96
2023/07/28 02:18:04;;;;;;;0.30;0.30;;;;;;;;;;5002753;28;20184;-94
2023/07/28 02:20:34;;;;;;;0.30;0.30;;;;;;;;;;5002518;28;20172;-95
2023/07/28 02:23:01;;;;;;;0.32;0.32;;;;;;;;;;5002724;28;20173;-95
2023/07/28 02:25:29;;;;;;;0.30;0.30;;;;;;;;;;5002361;28;20180;-95
2023/07/28 02:27:57;;;;;;;0.38;0.38;;;;;;;;;;5002544;28;20192;-95
2023/07/28 02:30:24;;;;;;;0.50;0.50;;;;;;;;;;5010002;28;20191;-95
2023/07/28 02:32:52;;;;;;;0.40;0.40;;;;;;;;;;5005728;28;20188;-95
2023/07/28 02:35:20;;;;;;;0.40;0.40;;;;;;;;;;5021958;28;20179;-95
2023/07/28 02:37:49;;;;;;;0.60;0.60;;;;;;;;;;5021863;28;20172;-95
2023/07/28 02:40:17;;;;;;;0.30;0.30;;;;;;;;;;5021852;28;20176;-95
2023/07/28 02:42:45;;;;;;;0.38;0.38;;;;;;;;;;5021682;28;20175;-95
2023/07/28 02:45:12;;;;;;;0.50;0.50;;;;;;;;;;5021817;28;20175;-96
2023/07/28 02:47:40;;;;;;;0.40;0.40;;;;;;;;;;5021783;28;20172;-96
2023/07/28 02:50:08;;;;;;;0.50;0.50;;;;;;;;;;5021600;28;20180;-96
2023/07/28 02:52:36;;;;;;;0.40;0.40;;;;;;;;;;5021439;28;20191;-96
2023/07/28 02:55:06;;;;;;;0.50;0.50;;;;;;;;;;5021066;28;20191;-96
2023/07/28 02:57:34;;;;;;;0.60;0.60;;;;;;;;;;5021591;28;20172;-95
2023/07/28 03:00:02;;;;;;;0.68;0.68;;;;;;;;;;5001468;28;20201;-95
2023/07/28 03:02:30;;;;;;;0.40;0.40;;;;;;;;;;5001729;28;20188;-95
2023/07/28 03:04:58;;;;;;;0.30;0.30;;;;;;;;;;5001824;28;20184;-95
2023/07/28 03:07:25;;;;;;;0.30;0.30;;;;;;;;;;5001929;28;20183;-95
2023/07/28 03:09:53;;;;;;;0.40;0.40;;;;;;;;;;5001957;28;20176;-96
2023/07/28 03:12:22;;;;;;;0.30;0.30;;;;;;;;;;5001650;28;20173;-94
2023/07/28 03:14:50;;;;;;;0.40;0.40;;;;;;;;;;5001709;28;20240;-95
2023/07/28 03:17:18;;;;;;;0.80;0.60;;;;;;;;;;5001645;28;20184;-96
2023/07/28 03:19:45;;;;;;;0.50;0.50;;;;;;;;;;5001629;28;20260;-95
2023/07/28 03:22:13;;;;;;;0.50;0.50;;;;;;;;;;5001196;28;20177;-96
2023/07/28 03:24:42;;;;;;;0.50;0.50;;;;;;;;;;5001477;28;20172;-96
2023/07/28 03:27:10;;;;;;;0.50;0.50;;;;;;;;;;5001457;28;20172;-94
2023/07/28 03:29:39;;;;;;;0.50;0.50;;;;;;;;;;5001223;28;20192;-95
2023/07/28 03:32:07;;;;;;;0.50;0.50;;;;;;;;;;5000571;28;20193;-95
2023/07/28 03:34:35;;;;;;;0.40;0.40;;;;;;;;;;5000370;28;20180;-95
2023/07/28 03:37:03;;;;;;;0.25;0.25;;;;;;;;;;5001047;28;20200;-95
2023/07/28 03:39:31;;;;;;;0.40;0.40;;;;;;;;;;5000978;28;20189;-95
2023/07/28 03:41:59;;;;;;;0.43;0.43;;;;;;;;;;5000880;28;20176;-95
2023/07/28 03:44:26;;;;;;;0.32;0.32;;;;;;;;;;5001137;28;20180;-95
2023/07/28 03:46:56;;;;;;;0.35;0.35;;;;;;;;;;5001143;28;20183;-95
2023/07/28 03:49:23;;;;;;;0.32;0.32;;;;;;;;;;5001137;28;20180;-96
2023/07/28 03:51:51;;;;;;;0.40;0.40;;;;;;;;;;5000722;28;20172;-96
2023/07/28 03:54:19;;;;;;;0.30;0.30;;;;;;;;;;5001000;28;20173;-95
2023/07/28 03:56:47;;;;;;;0.50;0.50;;;;;;;;;;5000748;28;20184;-95
2023/07/28 03:59:14;;;;;;;0.52;0.52;;;;;;;;;;5000969;28;20181;-95
2023/07/28 04:01:42;;;;;;;0.35;0.35;;;;;;;;;;5000593;28;20244;-95
2023/07/28 04:04:11;;;;;;;0.50;0.50;;;;;;;;;;5000817;28;20184;-95
2023/07/28 04:06:44;;;;;;;0.40;0.40;;;;;;;;;;5000303;28;20184;-95
2023/07/28 04:09:15;;;;;;;0.40;0.40;;;;;;;;;;5000209;28;20183;-95
2023/07/28 04:11:44;;;;;;;0.50;0.50;;;;;;;;;;5002162;28;20192;-95
2023/07/28 04:14:11;;;;;;;0.75;0.50;;;;;;;;;;5020127;28;20179;-94
2023/07/28 04:16:39;;;;;;;0.60;0.60;;;;;;;;;;5019954;28;20192;-95
2023/07/28 04:19:07;;;;;;;0.40;0.40;;;;;;;;;;5020030;28;20172;-95
2023/07/28 04:21:39;;;;;;;0.50;0.50;;;;;;;;;;5019633;28;20175;-96
2023/07/28 04:24:08;;;;;;;0.40;0.32;;;;;;;;;;5019921;28;20184;-95
2023/07/28 04:26:35;;;;;;;0.30;0.30;;;;;;;;;;5019897;28;20168;-96
2023/07/28 04:29:03;;;;;;;0.52;0.52;;;;;;;;;;5019847;28;20187;-95
